Time;durP1;ratioP1;P1;durP2;ratioP2;P2;SDS_P1;SDS_P2;PMS_P1;PMS_P2;Temp;Humidity;BMP_temperature;BMP_pressure;BME280_temperature;BME280_humidity;BME280_pressure;Samples;Min_cycle;Max_cycle;Signal;HPM_P1;HPM_P2
2022/03/01 00:01:57;;;;;;;20.08;11.63;;;3.70;71.40;;;;;;5028589;28;20013;-72
2022/03/01 00:04:23;;;;;;;20.63;12.48;;;3.70;71.50;;;;;;5028625;28;20131;-72
2022/03/01 00:06:49;;;;;;;20.33;11.77;;;3.70;71.60;;;;;;5031120;28;20022;-71
2022/03/01 00:09:14;;;;;;;19.65;11.98;;;3.80;71.60;;;;;;5030850;28;20033;-72
2022/03/01 00:11:40;;;;;;;21.08;12.50;;;3.80;71.40;;;;;;5028585;28;20037;-72
2022/03/01 00:14:06;;;;;;;22.73;13.60;;;3.80;71.40;;;;;;5030847;28;20045;-72
2022/03/01 00:16:32;;;;;;;22.90;12.50;;;3.80;71.40;;;;;;5030913;28;20030;-72
2022/03/01 00:18:59;;;;;;;20.02;12.63;;;3.80;71.50;;;;;;5028239;28;20029;-71
2022/03/01 00:21:28;;;;;;;23.02;12.98;;;3.80;71.70;;;;;;5029549;28;20022;-71
2022/03/01 00:23:55;;;;;;;21.40;12.63;;;3.80;71.80;;;;;;5028090;28;20156;-72
2022/03/01 00:26:20;;;;;;;23.27;13.00;;;3.70;71.90;;;;;;5028414;28;20080;-72
2022/03/01 00:28:46;;;;;;;22.85;12.90;;;3.70;72.00;;;;;;5030942;28;20433;-72
2022/03/01 00:31:11;;;;;;;22.15;13.18;;;3.60;72.10;;;;;;5027759;28;20525;-71
2022/03/01 00:33:37;;;;;;;22.17;12.75;;;3.60;72.10;;;;;;5030661;28;20583;-72
2022/03/01 00:36:03;;;;;;;20.90;12.10;;;3.60;72.10;;;;;;5030390;28;20072;-71
2022/03/01 00:38:28;;;;;;;21.23;11.38;;;3.60;72.00;;;;;;5027943;28;20070;-72
2022/03/01 00:40:55;;;;;;;23.40;12.65;;;3.60;72.20;;;;;;5030285;28;20032;-72
2022/03/01 00:43:21;;;;;;;23.23;13.27;;;3.60;72.30;;;;;;5029078;28;20555;-71
2022/03/01 00:45:48;;;;;;;20.58;12.25;;;3.60;72.60;;;;;;5030548;28;20025;-72
2022/03/01 00:48:13;;;;;;;20.52;13.00;;;3.50;72.80;;;;;;5030170;28;20586;-72
2022/03/01 00:50:39;;;;;;;21.88;13.05;;;3.50;72.90;;;;;;5029059;28;20025;-72
2022/03/01 00:53:05;;;;;;;20.40;12.55;;;3.50;73.00;;;;;;5033300;28;20486;-72
2022/03/01 00:55:32;;;;;;;20.27;12.15;;;3.40;73.00;;;;;;5030278;28;20025;-71
2022/03/01 00:57:58;;;;;;;19.70;11.75;;;3.50;73.10;;;;;;5030170;28;20091;-72
2022/03/01 01:00:23;;;;;;;21.67;11.90;;;3.40;73.10;;;;;;5030049;28;20029;-72
2022/03/01 01:02:49;;;;;;;24.45;13.77;;;3.40;73.30;;;;;;5031275;28;20026;-74
2022/03/01 01:05:15;;;;;;;21.08;12.68;;;3.40;73.50;;;;;;5028529;28;20389;-74
2022/03/01 01:07:41;;;;;;;20.13;12.95;;;3.30;73.80;;;;;;5029983;28;20104;-74
2022/03/01 01:10:07;;;;;;;20.45;12.18;;;3.30;74.00;;;;;;5028828;28;20112;-72
2022/03/01 01:12:33;;;;;;;20.33;13.10;;;3.20;74.00;;;;;;5027411;28;20396;-72
2022/03/01 01:14:59;;;;;;;21.02;12.35;;;3.30;74.00;;;;;;5029838;28;20049;-73
2022/03/01 01:17:25;;;;;;;20.60;12.10;;;3.20;73.90;;;;;;5029926;28;20091;-73
2022/03/01 01:19:50;;;;;;;20.80;12.00;;;3.20;73.80;;;;;;5030220;28;20477;-73
2022/03/01 01:25:00;;;;;;;21.73;12.07;;;3.30;73.40;;;;;;5030746;28;20493;-73
2022/03/01 01:27:26;;;;;;;20.00;12.07;;;3.30;73.30;;;;;;5037373;28;20030;-74
2022/03/01 01:29:51;;;;;;;21.75;13.15;;;3.30;73.50;;;;;;5028314;28;20025;-73
2022/03/01 01:32:17;;;;;;;19.88;12.43;;;3.30;73.20;;;;;;5029429;28;20056;-73
2022/03/01 01:34:43;;;;;;;19.13;11.25;;;3.30;73.20;;;;;;5028336;28;20558;-72
2022/03/01 01:37:08;;;;;;;23.40;12.40;;;3.30;73.30;;;;;;5033745;28;20439;-72
2022/03/01 01:39:34;;;;;;;20.52;12.63;;;3.30;73.50;;;;;;5029395;28;20126;-73
2022/03/01 01:41:59;;;;;;;20.90;12.35;;;3.30;73.60;;;;;;5039053;28;20021;-73
2022/03/01 01:44:25;;;;;;;24.55;13.30;;;3.20;73.80;;;;;;5029364;28;20030;-72
2022/03/01 01:46:50;;;;;;;23.83;13.70;;;3.20;73.90;;;;;;5029427;28;20492;-72
2022/03/01 01:49:16;;;;;;;24.40;13.07;;;3.20;74.00;;;;;;5029116;28;20037;-73
2022/03/01 01:51:41;;;;;;;21.70;12.98;;;3.20;74.10;;;;;;5027866;28;20025;-73
2022/03/01 01:54:07;;;;;;;21.67;12.80;;;3.20;74.10;;;;;;5036057;28;20405;-73
2022/03/01 01:56:33;;;;;;;22.15;13.48;;;3.20;74.10;;;;;;5029235;28;20029;-73
2022/03/01 01:58:58;;;;;;;21.02;12.55;;;3.20;74.20;;;;;;5028945;28;20063;-73
2022/03/01 02:01:24;;;;;;;21.00;12.88;;;3.10;74.30;;;;;;5027672;28;20541;-72
2022/03/01 02:03:51;;;;;;;21.88;11.98;;;3.10;74.40;;;;;;5026373;28;20093;-73
2022/03/01 02:06:16;;;;;;;24.73;13.23;;;3.20;74.50;;;;;;5026188;28;20025;-73
2022/03/01 02:08:42;;;;;;;20.17;12.80;;;3.10;74.50;;;;;;5035519;28;20029;-73
2022/03/01 02:11:08;;;;;;;21.38;13.20;;;3.10;74.40;;;;;;5029045;28;20280;-72
2022/03/01 02:13:34;;;;;;;21.05;12.82;;;3.10;74.50;;;;;;5022586;28;20085;-73
2022/03/01 02:15:59;;;;;;;21.55;13.00;;;3.10;74.60;;;;;;5028774;28;20025;-72
2022/03/01 02:18:25;;;;;;;25.23;14.27;;;3.10;74.60;;;;;;5026078;28;20028;-72
2022/03/01 02:20:51;;;;;;;23.38;13.48;;;3.10;74.80;;;;;;5028723;28;20021;-72
2022/03/01 02:23:16;;;;;;;21.77;13.43;;;3.00;74.80;;;;;;5027223;28;20091;-73
2022/03/01 02:25:42;;;;;;;21.48;11.82;;;3.00;74.90;;;;;;5028794;28;20044;-73
2022/03/01 02:28:07;;;;;;;22.13;12.73;;;3.00;75.70;;;;;;5028599;28;20386;-73
2022/03/01 02:30:34;;;;;;;21.35;13.25;;;3.00;75.10;;;;;;5028665;28;20472;-72
2022/03/01 02:32:59;;;;;;;22.08;13.35;;;3.00;75.10;;;;;;5026029;28;20032;-72
2022/03/01 02:35:26;;;;;;;22.67;13.45;;;3.00;75.10;;;;;;5027231;28;20034;-72
2022/03/01 02:37:52;;;;;;;22.50;12.93;;;3.00;75.10;;;;;;5027155;28;20033;-72
2022/03/01 02:40:19;;;;;;;21.95;12.55;;;3.00;75.10;;;;;;5028876;28;20025;-73
2022/03/01 02:42:46;;;;;;;22.60;13.93;;;3.00;75.20;;;;;;5028421;28;20013;-73
2022/03/01 02:45:16;;;;;;;19.25;12.65;;;3.00;75.20;;;;;;5027205;28;20120;-73
2022/03/01 02:47:42;;;;;;;;;;;3.00;75.20;;;;;;5028678;28;20072;-72
2022/03/01 02:50:09;;;;;;;19.20;12.07;;;3.00;75.20;;;;;;5029369;28;19909;-72
2022/03/01 02:52:34;;;;;;;19.25;12.00;;;2.90;75.30;;;;;;5028545;28;20034;-73
2022/03/01 02:55:01;;;;;;;21.33;11.23;;;2.90;75.20;;;;;;5028237;28;20029;-73
2022/03/01 02:57:27;;;;;;;20.63;12.70;;;2.90;75.20;;;;;;5026856;28;20237;-73
2022/03/01 02:59:53;;;;;;;26.48;13.00;;;2.90;75.30;;;;;;5028674;28;20022;-72
2022/03/01 03:02:18;;;;;;;22.98;12.98;;;2.90;75.50;;;;;;5027164;28;20033;-73
2022/03/01 03:04:44;;;;;;;21.20;12.48;;;2.90;75.50;;;;;;5026786;28;20034;-73
2022/03/01 03:07:11;;;;;;;23.10;13.00;;;2.90;75.50;;;;;;5027085;28;20508;-72
2022/03/01 03:09:36;;;;;;;21.25;12.18;;;2.90;75.50;;;;;;5035131;28;20032;-72
2022/03/01 03:12:02;;;;;;;20.23;12.95;;;2.90;75.60;;;;;;5027135;28;20029;-72
2022/03/01 03:14:28;;;;;;;23.38;13.88;;;2.90;75.70;;;;;;5026694;28;20528;-73
2022/03/01 03:16:53;;;;;;;20.20;13.23;;;2.90;75.80;;;;;;5028128;28;20049;-73
2022/03/01 03:19:19;;;;;;;22.10;13.18;;;2.90;76.00;;;;;;5028309;28;20053;-72
2022/03/01 03:21:47;;;;;;;22.50;12.90;;;2.90;76.20;;;;;;5028131;28;20029;-73
2022/03/01 03:24:13;;;;;;;21.10;13.27;;;2.90;76.10;;;;;;5026852;28;20021;-73
2022/03/01 03:26:39;;;;;;;23.20;13.65;;;2.90;76.00;;;;;;5030373;28;20378;-73
2022/03/01 03:29:08;;;;;;;19.98;12.65;;;2.80;75.90;;;;;;5032031;28;20079;-72
2022/03/01 03:31:35;;;;;;;22.50;13.18;;;2.90;75.90;;;;;;5030448;28;20043;-72
2022/03/01 03:34:00;;;;;;;22.05;13.50;;;2.80;75.90;;;;;;5031818;28;20025;-72
2022/03/01 03:36:26;;;;;;;23.30;14.02;;;2.80;75.90;;;;;;5031778;28;20102;-72
2022/03/01 03:38:51;;;;;;;23.90;13.52;;;2.80;75.70;;;;;;5031596;28;20469;-72
2022/03/01 03:41:17;;;;;;;22.85;14.70;;;2.80;75.80;;;;;;5031427;28;20037;-72
2022/03/01 03:43:42;;;;;;;26.48;13.55;;;2.80;75.80;;;;;;5031630;28;20033;-72
2022/03/01 03:46:08;;;;;;;22.25;12.75;;;2.80;75.60;;;;;;5028334;28;20186;-73
2022/03/01 03:48:33;;;;;;;22.33;13.00;;;2.90;75.50;;;;;;5030782;28;20779;-73
2022/03/01 03:50:59;;;;;;;24.77;13.77;;;2.80;75.50;;;;;;5030068;28;20030;-73
2022/03/01 03:53:24;;;;;;;24.23;13.90;;;2.90;75.50;;;;;;5031425;28;20571;-73
2022/03/01 03:55:50;;;;;;;23.33;13.50;;;2.80;75.50;;;;;;5028741;28;20026;-73
2022/03/01 03:58:15;;;;;;;23.33;13.40;;;2.80;75.50;;;;;;5027195;28;20021;-73
2022/03/01 04:00:41;;;;;;;23.05;13.93;;;2.90;75.50;;;;;;5031374;28;20056;-73
2022/03/01 04:03:07;;;;;;;23.92;13.63;;;2.90;75.60;;;;;;5030191;28;20465;-72
2022/03/01 04:05:34;;;;;;;24.40;13.43;;;2.90;75.40;;;;;;5028589;28;20021;-73
2022/03/01 04:08:00;;;;;;;21.40;13.73;;;2.90;75.40;;;;;;5031034;28;20075;-73
2022/03/01 04:10:26;;;;;;;23.85;13.70;;;2.90;75.40;;;;;;5031261;28;20033;-72
2022/03/01 04:12:52;;;;;;;21.80;12.43;;;2.90;76.00;;;;;;5031131;28;20036;-73
2022/03/01 04:15:17;;;;;;;22.75;12.93;;;2.90;75.60;;;;;;5029437;28;20052;-73
2022/03/01 04:17:43;;;;;;;21.60;12.32;;;2.90;75.60;;;;;;5030997;28;20435;-73
2022/03/01 04:20:10;;;;;;;23.10;13.30;;;2.90;75.50;;;;;;5030978;28;20478;-73
2022/03/01 04:22:36;;;;;;;22.95;12.85;;;2.90;75.40;;;;;;5027857;28;20505;-73
2022/03/01 04:25:03;;;;;;;22.08;12.93;;;2.90;75.40;;;;;;5029448;28;20405;-73
2022/03/01 04:27:28;;;;;;;23.10;13.68;;;2.90;75.40;;;;;;5030736;28;20025;-73
2022/03/01 04:29:54;;;;;;;19.98;12.60;;;2.90;75.50;;;;;;5030686;28;20025;-73
2022/03/01 04:32:19;;;;;;;22.77;13.73;;;2.90;75.50;;;;;;5028264;28;20725;-72
2022/03/01 04:34:45;;;;;;;20.90;12.65;;;2.90;75.40;;;;;;5027955;28;20456;-73
2022/03/01 04:37:11;;;;;;;21.85;14.02;;;2.80;75.40;;;;;;5029801;28;20157;-73
2022/03/01 04:39:36;;;;;;;22.83;14.18;;;2.90;75.60;;;;;;5030435;28;20025;-73
2022/03/01 04:42:04;;;;;;;21.92;13.57;;;2.90;75.80;;;;;;5030624;28;20025;-74
2022/03/01 04:44:31;;;;;;;20.63;13.45;;;2.80;76.50;;;;;;5030584;28;20018;-73
2022/03/01 04:46:56;;;;;;;20.98;13.00;;;2.80;76.00;;;;;;5030145;28;20485;-73
2022/03/01 04:49:22;;;;;;;23.70;13.70;;;2.80;76.20;;;;;;5030582;28;20037;-73
2022/03/01 04:51:48;;;;;;;24.42;14.65;;;2.80;76.50;;;;;;5030250;28;20536;-73
2022/03/01 04:54:13;;;;;;;21.02;13.52;;;2.70;76.60;;;;;;5029049;28;20029;-74
2022/03/01 04:56:39;;;;;;;24.25;14.90;;;2.70;76.90;;;;;;5029997;28;20029;-73
2022/03/01 04:59:04;;;;;;;24.27;14.18;;;2.70;77.10;;;;;;5030203;28;20470;-73
2022/03/01 05:01:30;;;;;;;23.10;13.68;;;2.70;77.40;;;;;;5028852;28;20033;-73
2022/03/01 05:03:56;;;;;;;25.77;15.02;;;2.70;77.70;;;;;;5028444;28;20083;-73
2022/03/01 05:06:21;;;;;;;24.13;14.25;;;2.60;77.70;;;;;;5030158;28;20025;-74
2022/03/01 05:08:47;;;;;;;22.33;14.07;;;2.60;78.00;;;;;;5028754;28;20021;-73
2022/03/01 05:11:12;;;;;;;28.88;14.95;;;2.60;78.20;;;;;;5028870;28;20021;-73
2022/03/01 05:13:38;;;;;;;22.13;13.30;;;2.60;78.20;;;;;;5029482;28;20049;-73
2022/03/01 05:16:03;;;;;;;25.17;14.20;;;2.60;78.20;;;;;;5036726;28;20033;-74
2022/03/01 05:18:29;;;;;;;23.38;14.70;;;2.60;78.30;;;;;;5029977;28;20049;-74
2022/03/01 05:20:54;;;;;;;28.35;14.50;;;2.60;78.30;;;;;;5028162;28;20036;-73
2022/03/01 05:23:20;;;;;;;24.05;14.88;;;2.60;78.20;;;;;;5027060;28;20021;-73
2022/03/01 05:25:46;;;;;;;23.13;14.73;;;2.60;78.00;;;;;;5029669;28;20108;-73
2022/03/01 05:28:11;;;;;;;23.27;13.68;;;2.60;78.00;;;;;;5029598;28;20033;-73
2022/03/01 05:30:37;;;;;;;24.50;14.20;;;2.60;78.00;;;;;;5029468;28;20079;-73
2022/03/01 05:33:03;;;;;;;26.27;15.75;;;2.60;78.00;;;;;;5029461;28;20029;-73
2022/03/01 05:35:30;;;;;;;26.98;14.90;;;2.60;78.00;;;;;;5028089;28;20030;-73
2022/03/01 05:37:57;;;;;;;26.13;14.43;;;2.60;78.20;;;;;;5029274;28;20551;-73
2022/03/01 05:40:26;;;;;;;20.65;13.32;;;2.50;78.20;;;;;;5026867;28;20449;-74
2022/03/01 05:42:52;;;;;;;24.35;14.57;;;2.60;78.40;;;;;;5026596;28;20425;-73
2022/03/01 05:45:20;;;;;;;24.77;14.65;;;2.60;78.50;;;;;;5026494;28;20529;-73
2022/03/01 05:47:45;;;;;;;24.30;14.63;;;2.50;78.60;;;;;;5029817;28;20544;-73
2022/03/01 05:50:13;;;;;;;25.85;15.00;;;2.50;78.80;;;;;;5026443;28;20079;-73
2022/03/01 05:52:39;;;;;;;23.20;14.02;;;2.50;78.80;;;;;;5028943;28;20040;-73
2022/03/01 05:55:06;;;;;;;24.40;14.27;;;2.50;79.00;;;;;;5027650;28;20026;-73
2022/03/01 05:57:32;;;;;;;24.85;13.98;;;2.50;78.80;;;;;;5025485;28;20029;-73
2022/03/01 05:59:58;;;;;;;23.73;13.90;;;2.60;78.80;;;;;;5025897;28;20375;-73
2022/03/01 06:02:24;;;;;;;26.40;15.50;;;2.60;78.70;;;;;;5029150;28;20048;-73
2022/03/01 06:04:50;;;;;;;22.65;14.35;;;2.60;79.00;;;;;;5027438;28;20059;-73
2022/03/01 06:07:15;;;;;;;25.83;14.93;;;2.60;79.00;;;;;;5029026;28;20038;-73
2022/03/01 06:09:41;;;;;;;23.75;14.57;;;2.50;79.10;;;;;;5041423;28;20034;-73
2022/03/01 06:12:07;;;;;;;25.23;14.60;;;2.50;79.20;;;;;;5028866;28;20108;-73
2022/03/01 06:14:32;;;;;;;21.90;13.75;;;2.50;79.40;;;;;;5028612;28;20057;-73
2022/03/01 06:16:58;;;;;;;28.58;16.05;;;2.50;79.60;;;;;;5028517;28;20103;-73
2022/03/01 06:19:24;;;;;;;24.58;15.23;;;2.40;79.90;;;;;;5027426;28;20053;-73
2022/03/01 06:21:52;;;;;;;26.27;15.07;;;2.40;80.10;;;;;;5027319;28;20508;-73
2022/03/01 06:24:18;;;;;;;26.33;16.48;;;2.40;80.50;;;;;;5028549;28;20033;-73
2022/03/01 06:26:43;;;;;;;26.48;16.58;;;2.40;80.70;;;;;;5028665;28;20025;-73
2022/03/01 06:29:09;;;;;;;28.10;14.85;;;2.40;80.80;;;;;;5027279;28;20032;-73
2022/03/01 06:31:35;;;;;;;28.05;16.35;;;2.40;80.80;;;;;;5029470;28;20409;-73
2022/03/01 06:34:00;;;;;;;27.13;15.52;;;2.40;80.90;;;;;;5031487;28;20029;-72
2022/03/01 06:36:26;;;;;;;24.83;15.90;;;2.40;80.90;;;;;;5030443;28;20033;-73
2022/03/01 06:38:52;;;;;;;29.73;16.27;;;2.40;80.90;;;;;;5032445;28;20037;-72
2022/03/01 06:41:18;;;;;;;25.63;15.55;;;2.30;81.00;;;;;;5031038;28;20092;-72
2022/03/01 06:43:43;;;;;;;29.33;15.98;;;2.30;81.00;;;;;;5030028;28;20022;-72
2022/03/01 06:46:09;;;;;;;25.52;15.40;;;2.30;80.90;;;;;;5032234;28;20057;-72
2022/03/01 06:48:35;;;;;;;28.10;15.23;;;2.30;81.00;;;;;;5031611;28;20031;-72
2022/03/01 06:51:01;;;;;;;24.70;15.23;;;2.30;80.90;;;;;;5032388;28;20130;-72
2022/03/01 06:53:27;;;;;;;26.48;14.48;;;2.30;81.10;;;;;;5032501;28;20496;-73
2022/03/01 06:55:52;;;;;;;23.52;14.90;;;2.30;81.10;;;;;;5032259;28;20033;-72
2022/03/01 06:58:18;;;;;;;25.85;14.50;;;2.30;81.20;;;;;;5031108;28;20025;-73
2022/03/01 07:00:44;;;;;;;28.70;14.95;;;2.40;81.30;;;;;;5035308;28;20442;-72
2022/03/01 07:03:10;;;;;;;27.33;14.15;;;2.40;81.20;;;;;;5036411;28;20108;-73
2022/03/01 07:05:39;;;;;;;28.13;15.43;;;2.40;81.30;;;;;;5036416;28;20148;-72
2022/03/01 07:08:04;;;;;;;25.77;14.65;;;2.50;81.30;;;;;;5035639;28;20022;-73
2022/03/01 07:10:30;;;;;;;24.85;14.32;;;2.50;81.30;;;;;;5035838;28;20390;-72
2022/03/01 07:12:55;;;;;;;24.05;15.10;;;2.50;81.30;;;;;;5036090;28;20026;-72
2022/03/01 07:15:21;;;;;;;32.42;16.40;;;2.50;81.00;;;;;;5035881;28;20420;-72
2022/03/01 07:17:47;;;;;;;26.35;14.68;;;2.60;80.80;;;;;;5034958;28;20087;-72
2022/03/01 07:20:13;;;;;;;24.40;14.00;;;2.60;81.40;;;;;;5034868;28;20021;-72
2022/03/01 07:22:39;;;;;;;30.92;16.63;;;2.60;80.60;;;;;;5036077;28;20017;-72
2022/03/01 07:25:06;;;;;;;24.63;14.45;;;2.60;80.50;;;;;;5036020;28;20413;-72
2022/03/01 07:27:32;;;;;;;25.63;14.30;;;2.70;80.30;;;;;;5036010;28;20040;-72
2022/03/01 07:29:58;;;;;;;27.65;15.55;;;2.70;80.40;;;;;;5035876;28;20029;-72
2022/03/01 07:32:23;;;;;;;28.08;14.68;;;2.70;80.80;;;;;;5035714;28;20128;-72
2022/03/01 07:34:49;;;;;;;25.75;14.82;;;2.80;81.00;;;;;;5035874;28;20105;-72
2022/03/01 07:37:15;;;;;;;25.95;14.63;;;2.80;80.30;;;;;;5035814;28;20416;-72
2022/03/01 07:39:40;;;;;;;23.70;14.55;;;2.90;79.80;;;;;;5035868;28;20076;-72
2022/03/01 07:42:06;;;;;;;25.38;15.00;;;2.90;79.70;;;;;;5035605;28;20075;-72
2022/03/01 07:44:36;;;;;;;24.08;14.98;;;2.90;80.10;;;;;;5035601;28;20108;-72
2022/03/01 07:47:06;;;;;;;34.47;15.20;;;3.00;79.90;;;;;;5035694;28;20029;-72
2022/03/01 07:49:32;;;;;;;;;;;3.00;79.70;;;;;;5034776;28;20112;-72
2022/03/01 07:51:58;;;;;;;29.08;15.80;;;3.00;79.90;;;;;;5035623;28;20048;-72
2022/03/01 07:54:23;;;;;;;29.88;14.55;;;3.00;79.70;;;;;;5035550;28;20483;-72
2022/03/01 07:56:49;;;;;;;26.80;16.23;;;3.10;80.00;;;;;;5034068;28;20116;-72
2022/03/01 07:59:14;;;;;;;25.15;15.48;;;3.10;79.10;;;;;;5035372;28;20367;-72
2022/03/01 08:01:40;;;;;;;27.88;15.20;;;3.20;79.30;;;;;;5035367;28;20025;-72
2022/03/01 08:04:05;;;;;;;28.23;16.13;;;3.20;79.10;;;;;;5035384;28;20106;-72
2022/03/01 08:06:31;;;;;;;25.30;14.95;;;3.20;78.50;;;;;;5035287;28;20060;-72
2022/03/01 08:08:56;;;;;;;30.73;16.15;;;3.20;79.30;;;;;;5033881;28;20040;-72
2022/03/01 08:11:22;;;;;;;30.05;16.05;;;3.20;79.40;;;;;;5033223;28;20034;-72
2022/03/01 08:13:47;;;;;;;29.38;15.68;;;3.30;79.20;;;;;;5025300;28;20472;-72
2022/03/01 08:16:13;;;;;;;24.58;15.13;;;3.20;78.80;;;;;;5051354;28;20115;-72
2022/03/01 08:18:38;;;;;;;25.13;15.00;;;3.30;79.20;;;;;;5034313;28;20056;-72
2022/03/01 08:21:06;;;;;;;26.98;15.98;;;3.30;79.00;;;;;;5034672;28;20473;-72
2022/03/01 08:23:32;;;;;;;27.52;15.95;;;3.40;79.30;;;;;;5034952;28;20068;-72
2022/03/01 08:25:57;;;;;;;25.05;16.70;;;3.40;79.10;;;;;;5034844;28;20029;-72
2022/03/01 08:28:23;;;;;;;28.70;17.05;;;3.50;79.70;;;;;;5034798;28;20445;-72
2022/03/01 08:30:49;;;;;;;32.10;16.45;;;3.50;80.00;;;;;;5034739;28;20033;-72
2022/03/01 08:33:16;;;;;;;26.08;16.42;;;3.60;79.60;;;;;;5034692;28;20064;-72
2022/03/01 08:35:41;;;;;;;30.65;15.88;;;3.60;79.30;;;;;;5034563;28;20025;-72
2022/03/01 08:38:07;;;;;;;28.08;15.48;;;3.70;79.20;;;;;;5034684;28;20022;-72
2022/03/01 08:40:37;;;;;;;24.25;15.85;;;3.70;78.80;;;;;;5034641;28;20167;-72
2022/03/01 08:43:04;;;;;;;24.95;15.68;;;3.80;78.90;;;;;;5049754;28;20065;-72
2022/03/01 08:45:29;;;;;;;27.67;16.17;;;3.80;78.60;;;;;;5034334;28;20040;-72
2022/03/01 08:47:55;;;;;;;25.30;15.50;;;3.80;78.30;;;;;;5049784;28;20025;-72
2022/03/01 08:50:21;;;;;;;23.40;15.30;;;3.90;78.10;;;;;;5034444;28;20108;-72
2022/03/01 08:52:47;;;;;;;27.38;16.52;;;3.90;79.10;;;;;;5049536;28;20405;-72
2022/03/01 08:55:12;;;;;;;25.90;16.83;;;4.00;78.40;;;;;;5034201;28;20029;-71
2022/03/01 08:57:38;;;;;;;30.45;16.83;;;4.00;78.20;;;;;;5034020;28;20022;-72
2022/03/01 09:00:07;;;;;;;28.83;16.52;;;4.10;78.10;;;;;;5034265;28;20018;-72
2022/03/01 09:02:33;;;;;;;26.70;16.00;;;4.20;78.70;;;;;;5034147;28;20406;-71
2022/03/01 09:04:58;;;;;;;24.10;15.88;;;4.20;78.00;;;;;;5033989;28;20057;-71
2022/03/01 09:07:25;;;;;;;24.33;16.23;;;4.30;77.70;;;;;;5034087;28;20036;-71
2022/03/01 09:09:50;;;;;;;23.55;15.05;;;4.30;77.20;;;;;;5034072;28;20026;-72
2022/03/01 09:12:16;;;;;;;28.00;15.82;;;4.40;77.10;;;;;;5032530;28;20032;-71
2022/03/01 09:14:41;;;;;;;23.92;15.95;;;4.50;77.80;;;;;;5033949;28;20469;-72
2022/03/01 09:17:07;;;;;;;25.02;16.10;;;4.60;78.30;;;;;;5033540;28;20033;-71
2022/03/01 09:19:32;;;;;;;30.23;16.98;;;4.60;77.80;;;;;;5033689;28;20029;-71
2022/03/01 09:21:58;;;;;;;26.80;16.50;;;4.70;77.30;;;;;;5033433;28;20021;-71
2022/03/01 09:24:24;;;;;;;25.75;16.55;;;4.70;76.80;;;;;;5033751;28;20034;-72
2022/03/01 09:26:49;;;;;;;26.48;15.93;;;4.80;77.50;;;;;;5032457;28;20032;-71
2022/03/01 09:29:15;;;;;;;25.60;16.38;;;4.80;76.70;;;;;;5033722;28;20109;-71
2022/03/01 09:31:40;;;;;;;31.20;16.42;;;4.90;76.80;;;;;;5032500;28;20033;-71
2022/03/01 09:34:06;;;;;;;26.00;15.27;;;4.90;76.90;;;;;;5033659;28;20528;-72
2022/03/01 09:36:32;;;;;;;26.50;16.77;;;5.00;78.30;;;;;;5029837;28;20032;-71
2022/03/01 09:38:57;;;;;;;25.17;16.42;;;5.10;76.70;;;;;;5031997;28;20485;-72
2022/03/01 09:41:23;;;;;;;25.25;16.42;;;5.20;76.70;;;;;;5032980;28;20078;-72
2022/03/01 09:43:53;;;;;;;26.20;16.52;;;5.30;77.00;;;;;;5033774;28;20109;-72
2022/03/01 09:46:18;;;;;;;25.55;16.05;;;5.40;75.90;;;;;;5032782;28;20021;-72
2022/03/01 09:48:44;;;;;;;25.88;16.77;;;5.50;75.60;;;;;;5032633;28;20034;-72
2022/03/01 09:51:11;;;;;;;27.88;17.50;;;5.50;75.40;;;;;;5033386;28;20029;-72
2022/03/01 09:53:40;;;;;;;24.48;15.55;;;5.60;74.90;;;;;;5033669;28;20036;-72
2022/03/01 09:56:07;;;;;;;24.35;15.68;;;5.80;75.10;;;;;;5032850;28;20048;-72
2022/03/01 09:58:33;;;;;;;22.35;15.95;;;5.90;74.70;;;;;;5031689;28;20033;-72
2022/03/01 10:00:59;;;;;;;25.08;15.32;;;6.10;74.90;;;;;;5030372;28;20017;-72
2022/03/01 10:03:27;;;;;;;23.95;15.82;;;6.30;72.90;;;;;;5033117;28;20030;-72
2022/03/01 10:05:52;;;;;;;25.63;16.15;;;6.50;73.10;;;;;;5031887;28;20037;-72
2022/03/01 10:08:23;;;;;;;23.27;15.32;;;6.60;71.90;;;;;;5033008;28;20105;-72
2022/03/01 10:10:51;;;;;;;25.02;15.38;;;6.80;71.80;;;;;;5032286;28;20025;-72
2022/03/01 10:13:28;;;;;;;23.30;15.95;;;6.80;71.10;;;;;;5032825;28;20104;-72
2022/03/01 10:16:16;;;;;;;23.20;15.25;;;6.90;70.20;;;;;;5032626;28;20042;-72
2022/03/01 10:18:48;;;;;;;20.50;14.23;;;7.00;70.80;;;;;;5032861;28;20040;-72
2022/03/01 10:21:14;;;;;;;20.60;14.18;;;7.10;70.30;;;;;;5031811;28;20120;-72
2022/03/01 10:23:50;;;;;;;21.55;14.65;;;7.20;70.00;;;;;;5032650;28;20032;-72
2022/03/01 10:26:19;;;;;;;23.83;15.00;;;7.30;69.90;;;;;;5032736;28;20021;-72
2022/03/01 10:28:45;;;;;;;22.65;15.25;;;7.30;68.90;;;;;;5032662;28;20388;-72
2022/03/01 10:31:20;;;;;;;22.13;14.48;;;7.30;68.60;;;;;;5031393;28;20039;-72
2022/03/01 10:34:04;;;;;;;22.27;14.93;;;7.30;69.70;;;;;;5032189;28;20080;-72
2022/03/01 10:36:35;;;;;;;23.30;13.63;;;7.40;69.50;;;;;;5032540;28;20026;-73
2022/03/01 10:39:08;;;;;;;20.52;14.23;;;7.60;69.90;;;;;;5032592;28;20367;-72
2022/03/01 10:41:36;;;;;;;21.13;14.32;;;7.80;69.40;;;;;;5032593;28;20021;-72
2022/03/01 10:44:03;;;;;;;23.10;15.93;;;7.90;68.40;;;;;;5031110;28;20056;-72
2022/03/01 10:46:30;;;;;;;22.38;14.98;;;8.00;67.80;;;;;;5031471;28;20030;-71
2022/03/01 10:48:59;;;;;;;22.20;15.35;;;8.00;66.30;;;;;;5032550;28;20033;-71
2022/03/01 10:51:24;;;;;;;23.35;15.23;;;8.00;66.80;;;;;;5032581;28;20037;-70
2022/03/01 10:53:50;;;;;;;24.27;15.18;;;8.10;66.10;;;;;;5032375;28;20109;-70
2022/03/01 10:56:16;;;;;;;21.13;15.13;;;8.20;65.90;;;;;;5030500;28;20450;-71
2022/03/01 10:58:43;;;;;;;18.90;13.57;;;8.30;65.40;;;;;;5032276;28;20505;-71
2022/03/01 11:01:10;;;;;;;20.95;15.25;;;8.40;65.70;;;;;;5032429;28;20075;-71
2022/03/01 11:03:36;;;;;;;22.67;14.90;;;8.50;64.40;;;;;;5031741;28;20025;-70
2022/03/01 11:06:03;;;;;;;21.05;14.50;;;8.70;64.30;;;;;;5032348;28;20037;-70
2022/03/01 11:08:34;;;;;;;22.45;13.68;;;9.00;61.80;;;;;;5029449;28;20116;-71
2022/03/01 11:11:01;;;;;;;19.05;12.93;;;9.40;61.90;;;;;;5027865;28;20198;-70
2022/03/01 11:13:27;;;;;;;20.75;13.30;;;9.50;60.80;;;;;;5030826;28;20163;-70
2022/03/01 11:16:30;;;;;;;18.08;12.30;;;9.50;60.20;;;;;;5031860;28;20098;-71
2022/03/01 11:19:38;;;;;;;16.90;12.65;;;9.40;59.60;;;;;;5032264;28;20025;-70
2022/03/01 11:22:05;;;;;;;17.30;12.38;;;9.30;60.00;;;;;;5047481;28;20029;-71
2022/03/01 11:24:32;;;;;;;19.90;12.65;;;9.20;61.00;;;;;;5032142;28;20032;-70
2022/03/01 11:27:06;;;;;;;24.90;14.48;;;9.20;61.50;;;;;;5028660;28;20029;-71
2022/03/01 11:29:40;;;;;;;22.92;14.73;;;9.10;61.10;;;;;;5026549;28;20120;-71
2022/03/01 11:32:20;;;;;;;18.50;13.40;;;8.90;59.90;;;;;;5043295;28;20043;-71
2022/03/01 11:34:46;;;;;;;23.02;14.55;;;8.80;59.90;;;;;;5028194;28;20037;-71
2022/03/01 11:37:21;;;;;;;21.60;15.15;;;8.80;61.30;;;;;;5028591;28;20478;-71
2022/03/01 11:39:56;;;;;;;19.60;14.13;;;8.80;60.90;;;;;;5028100;28;20025;-71
2022/03/01 11:42:21;;;;;;;20.83;14.05;;;8.80;60.70;;;;;;5028694;28;20029;-71
2022/03/01 11:44:56;;;;;;;23.50;15.40;;;8.80;61.20;;;;;;5028280;28;20432;-71
2022/03/01 11:47:26;;;;;;;23.50;15.23;;;8.90;60.00;;;;;;5034406;28;20025;-71
2022/03/01 11:49:51;;;;;;;21.88;14.65;;;8.80;60.40;;;;;;5029955;28;20551;-71
2022/03/01 11:52:23;;;;;;;20.33;13.25;;;8.80;61.30;;;;;;5034110;28;20037;-71
2022/03/01 11:54:51;;;;;;;26.52;14.40;;;8.90;61.40;;;;;;5035342;28;20108;-70
2022/03/01 11:57:23;;;;;;;23.75;14.70;;;8.90;61.60;;;;;;5041092;28;20560;-71
2022/03/01 11:59:50;;;;;;;25.48;16.00;;;9.00;61.30;;;;;;5034065;28;20474;-71
2022/03/01 12:02:17;;;;;;;23.25;16.13;;;9.00;60.80;;;;;;5035286;28;20060;-70
2022/03/01 12:04:50;;;;;;;24.45;14.85;;;9.00;60.50;;;;;;5035331;28;20017;-71
2022/03/01 12:07:20;;;;;;;24.50;15.63;;;9.10;61.20;;;;;;5035504;28;20032;-71
2022/03/01 12:09:59;;;;;;;22.77;14.25;;;9.20;60.30;;;;;;5035080;28;20038;-70
2022/03/01 12:12:45;;;;;;;19.92;14.85;;;9.20;60.60;;;;;;5034733;28;20095;-71
2022/03/01 12:15:12;;;;;;;22.33;14.88;;;9.30;59.30;;;;;;5033321;28;20045;-71
2022/03/01 12:17:46;;;;;;;21.25;14.77;;;9.20;59.60;;;;;;5028507;28;20393;-71
2022/03/01 12:20:15;;;;;;;22.40;13.98;;;9.20;59.90;;;;;;5034003;28;20540;-71
2022/03/01 12:22:59;;;;;;;21.52;14.77;;;9.30;59.40;;;;;;5033832;28;20045;-71
2022/03/01 12:25:26;;;;;;;19.30;13.23;;;9.50;59.70;;;;;;5049294;28;20072;-71
2022/03/01 12:27:53;;;;;;;20.00;13.43;;;9.60;59.50;;;;;;5033971;28;20355;-70
2022/03/01 12:30:26;;;;;;;21.15;14.57;;;9.50;58.80;;;;;;5033955;28;20053;-71
2022/03/01 12:32:59;;;;;;;22.27;14.63;;;9.70;58.60;;;;;;5046454;28;20493;-71
2022/03/01 12:35:26;;;;;;;21.67;14.32;;;10.00;58.70;;;;;;5033555;28;20018;-71
2022/03/01 12:37:52;;;;;;;20.65;14.27;;;10.20;57.90;;;;;;5043675;28;20527;-71
2022/03/01 12:40:29;;;;;;;18.25;13.15;;;10.20;57.80;;;;;;5044311;28;20022;-71